Elm, Arkansas
Current Conditions -  °F | °C
As of 2:56 PM on Tuesday 27 Jan 2015 (Local Time) from KADF Reporting Station
Clear Clear  
Wind Chill: 71°   Ceiling: Unl
Heat Index: 71°   Visibility: 10mi
Dew Point: 38°   Wind: 6mph
Humidity: 30%   Direction: 170°S
Pressure: 30.11"   Gusts: NA
Location:  34.2417°N, 93.3579°W
Report Text: KADF 272056Z AUTO 17005KT 10SM CLR 22/03 A3011 RMK AO2 56015 T02160033 SLP212
Loading
Personal Weather Stations






























Interactive Weather Map New forecast layout! Learn more

10-Day Weather Forecast

Advertisements
Track Severe Weather on mobile